Time;durP1;ratioP1;P1;durP2;ratioP2;P2;SDS_P1;SDS_P2;PMS_P1;PMS_P2;Temp;Humidity;BMP_temperature;BMP_pressure;BME280_temperature;BME280_humidity;BME280_pressure;Samples;Min_cycle;Max_cycle;Signal;HPM_P1;HPM_P2
2024/02/21 00:01:40;;;;;;;15.37;4.33;;;4.90;15.20;;;;;;5032405;28;20182;-69
2024/02/21 00:04:05;;;;;;;8.13;4.43;;;4.80;15.30;;;;;;5032494;28;20472;-69
2024/02/21 00:06:32;;;;;;;5.93;3.90;;;4.90;15.70;;;;;;5032869;28;20418;-67
2024/02/21 00:08:57;;;;;;;8.67;4.37;;;4.90;15.80;;;;;;5032276;28;20219;-68
2024/02/21 00:11:23;;;;;;;10.27;4.53;;;4.90;15.90;;;;;;5032387;28;20422;-68
2024/02/21 00:13:50;;;;;;;16.63;4.50;;;4.90;15.90;;;;;;5029991;28;20269;-68
2024/02/21 00:16:15;;;;;;;9.43;4.40;;;4.90;15.80;;;;;;5032086;28;20568;-69
2024/02/21 00:18:41;;;;;;;9.50;3.37;;;4.80;16.10;;;;;;5032064;28;20409;-68
2024/02/21 00:21:06;;;;;;;7.20;4.70;;;4.90;15.90;;;;;;5032101;28;20269;-69
2024/02/21 00:23:32;;;;;;;9.03;4.53;;;4.90;15.90;;;;;;5032177;28;20645;-69
2024/02/21 00:25:58;;;;;;;11.63;4.60;;;4.90;15.80;;;;;;5031980;28;20268;-68
2024/02/21 00:28:23;;;;;;;6.87;4.00;;;5.00;15.10;;;;;;5031831;28;20209;-68
2024/02/21 00:30:50;;;;;;;7.57;3.90;;;5.00;14.70;;;;;;5031772;28;20187;-68
2024/02/21 00:33:16;;;;;;;6.70;4.27;;;5.10;14.50;;;;;;5031922;28;20182;-69
2024/02/21 00:35:42;;;;;;;7.20;4.40;;;5.10;14.40;;;;;;5031942;28;20425;-68
2024/02/21 00:38:07;;;;;;;6.53;4.27;;;5.10;14.10;;;;;;5032006;28;20439;-68
2024/02/21 00:40:33;;;;;;;6.23;4.20;;;5.20;14.20;;;;;;5031573;28;20175;-70
2024/02/21 00:42:59;;;;;;;8.97;4.50;;;5.20;14.20;;;;;;5031832;28;20183;-68
2024/02/21 00:45:24;;;;;;;6.80;4.40;;;5.20;13.80;;;;;;5031785;28;20456;-68
2024/02/21 00:47:50;;;;;;;5.03;4.00;;;5.20;13.90;;;;;;5031802;28;20344;-68
2024/02/21 00:50:15;;;;;;;5.97;3.73;;;5.20;13.70;;;;;;5031705;28;20666;-67
2024/02/21 00:52:41;;;;;;;5.73;4.30;;;5.20;13.50;;;;;;5031802;28;20646;-69
2024/02/21 00:55:07;;;;;;;6.53;3.90;;;5.10;14.00;;;;;;5031584;28;20282;-68
2024/02/21 00:57:33;;;;;;;9.97;4.50;;;5.20;14.10;;;;;;5031481;28;20175;-68
2024/02/21 00:59:58;;;;;;;7.70;4.37;;;5.20;13.10;;;;;;5029813;28;20521;-69
2024/02/21 01:02:24;;;;;;;8.03;4.10;;;5.10;13.70;;;;;;5032118;28;20544;-70
2024/02/21 01:04:49;;;;;;;12.00;4.00;;;5.10;14.00;;;;;;5031468;28;20199;-69
2024/02/21 01:07:15;;;;;;;8.87;4.30;;;5.10;14.10;;;;;;5031329;28;20230;-69
2024/02/21 01:09:40;;;;;;;7.97;4.07;;;5.10;14.30;;;;;;5031228;28;20615;-69
2024/02/21 01:12:06;;;;;;;9.23;3.43;;;5.10;14.20;;;;;;5031261;28;20255;-69
2024/02/21 01:14:32;;;;;;;5.63;3.70;;;5.20;13.30;;;;;;5031246;28;20195;-69
2024/02/21 01:16:57;;;;;;;7.83;4.10;;;5.20;13.50;;;;;;5031366;28;20171;-68
2024/02/21 01:19:23;;;;;;;6.67;4.20;;;5.20;13.20;;;;;;5030955;28;20175;-70
2024/02/21 01:21:48;;;;;;;11.13;5.50;;;5.20;13.10;;;;;;5030969;28;20274;-69
2024/02/21 01:24:14;;;;;;;9.60;4.80;;;5.20;13.60;;;;;;5031070;28;20191;-69
2024/02/21 01:26:40;;;;;;;13.17;4.80;;;5.20;13.70;;;;;;5031142;28;20186;-70
2024/02/21 01:29:06;;;;;;;13.10;5.80;;;5.20;13.40;;;;;;5030782;28;20210;-71
2024/02/21 01:31:31;;;;;;;6.60;3.80;;;5.30;13.60;;;;;;5030851;28;20418;-70
2024/02/21 01:33:58;;;;;;;8.10;4.17;;;5.20;13.40;;;;;;5030931;28;20254;-69
2024/02/21 01:36:23;;;;;;;7.73;5.13;;;5.20;13.50;;;;;;5031001;28;20254;-69
2024/02/21 01:38:49;;;;;;;9.00;4.27;;;5.20;13.60;;;;;;5029194;28;20559;-70
2024/02/21 01:41:16;;;;;;;7.40;3.80;;;5.20;14.10;;;;;;5030753;28;20669;-69
2024/02/21 01:43:42;;;;;;;11.83;4.73;;;5.20;13.80;;;;;;5030842;28;20233;-69
2024/02/21 01:46:07;;;;;;;9.07;4.80;;;5.10;14.20;;;;;;5030971;28;20441;-68
2024/02/21 01:48:34;;;;;;;5.23;3.10;;;5.10;14.80;;;;;;5031223;28;20558;-70
2024/02/21 01:51:00;;;;;;;6.40;3.57;;;5.10;14.90;;;;;;5030555;28;20247;-70
2024/02/21 01:53:35;;;;;;;4.13;3.00;;;5.10;15.50;;;;;;5030894;28;20706;-69
2024/02/21 01:56:01;;;;;;;8.03;3.90;;;5.10;15.40;;;;;;5055937;22;20496;-69
2024/02/21 01:58:28;;;;;;;8.67;3.87;;;5.10;16.00;;;;;;5031547;28;20971;-68
2024/02/21 02:00:57;;;;;;;5.20;2.33;;;5.10;16.00;;;;;;5032389;28;20508;-69
2024/02/21 02:03:22;;;;;;;12.00;4.20;;;5.10;16.00;;;;;;5032942;28;20413;-68
2024/02/21 02:05:49;;;;;;;12.87;4.07;;;5.10;15.30;;;;;;5032448;28;20425;-68
2024/02/21 02:08:16;;;;;;;4.70;3.37;;;5.20;14.90;;;;;;5032795;28;20210;-67
2024/02/21 02:10:42;;;;;;;9.00;5.90;;;5.20;14.80;;;;;;5032724;28;20418;-68
2024/02/21 02:13:08;;;;;;;5.77;3.43;;;5.20;15.10;;;;;;5033246;28;20418;-68
2024/02/21 02:15:48;;;;;;;5.77;4.10;;;5.20;14.30;;;;;;5034495;28;20488;-67
2024/02/21 02:18:16;;;;;;;8.53;4.40;;;5.30;14.50;;;;;;5035572;28;20424;-68
2024/02/21 02:20:44;;;;;;;10.03;4.40;;;5.30;13.50;;;;;;5034356;28;20807;-68
2024/02/21 02:23:33;;;;;;;13.00;4.00;;;5.30;13.60;;;;;;5032976;28;20431;-68
2024/02/21 02:25:59;;;;;;;10.00;3.30;;;5.30;13.40;;;;;;5035057;28;20629;-68
2024/02/21 02:28:24;;;;;;;4.10;2.97;;;5.30;12.50;;;;;;5034851;28;20984;-68
2024/02/21 02:30:50;;;;;;;9.10;4.20;;;5.30;12.50;;;;;;5034174;28;20770;-68
2024/02/21 02:33:19;;;;;;;9.90;3.50;;;5.30;12.90;;;;;;5034597;28;20174;-68
2024/02/21 02:35:45;;;;;;;7.37;3.87;;;5.30;12.20;;;;;;5034482;28;20441;-68
2024/02/21 02:38:11;;;;;;;3.97;2.60;;;5.30;11.80;;;;;;5037432;28;20791;-68
2024/02/21 02:40:38;;;;;;;6.07;3.07;;;5.40;11.90;;;;;;5036670;28;20428;-68
2024/02/21 02:43:04;;;;;;;9.70;3.47;;;5.40;11.40;;;;;;5037908;28;20418;-68
2024/02/21 02:45:31;;;;;;;5.10;2.57;;;5.40;11.10;;;;;;5036903;28;20506;-67
2024/02/21 02:47:57;;;;;;;8.40;3.27;;;5.40;10.50;;;;;;5037027;28;20200;-67
2024/02/21 02:50:27;;;;;;;12.87;4.00;;;5.50;9.90;;;;;;5035566;28;20520;-69
2024/02/21 02:52:53;;;;;;;8.07;2.90;;;5.50;9.40;;;;;;5035723;28;20429;-68
2024/02/21 02:55:19;;;;;;;6.50;3.33;;;5.60;8.60;;;;;;5036597;28;20458;-67
2024/02/21 02:57:44;;;;;;;11.57;2.63;;;5.70;8.00;;;;;;5035793;28;20762;-68
2024/02/21 03:00:11;;;;;;;6.10;2.93;;;5.70;7.70;;;;;;5034903;28;20179;-69
2024/02/21 03:02:40;;;;;;;6.50;3.10;;;5.70;7.30;;;;;;5035595;28;20422;-69
2024/02/21 03:05:32;;;;;;;5.17;2.60;;;5.80;6.80;;;;;;5033937;28;21119;-69
2024/02/21 03:07:57;;;;;;;7.23;3.63;;;5.80;6.20;;;;;;5028417;28;20544;-69
2024/02/21 03:10:23;;;;;;;8.90;2.97;;;5.90;6.50;;;;;;5033740;28;20513;-69
2024/02/21 03:12:48;;;;;;;7.17;2.30;;;5.90;5.90;;;;;;5034347;28;20237;-69
2024/02/21 03:15:14;;;;;;;8.00;2.77;;;6.00;6.20;;;;;;5034593;28;20195;-69
2024/02/21 03:17:41;;;;;;;6.10;2.87;;;6.00;4.70;;;;;;5034883;28;20238;-68
2024/02/21 03:20:09;;;;;;;3.33;2.10;;;6.10;4.70;;;;;;5034733;28;20662;-70
2024/02/21 03:22:35;;;;;;;4.50;2.60;;;6.10;5.40;;;;;;5035108;28;20419;-69
2024/02/21 03:25:01;;;;;;;7.93;3.27;;;6.10;5.10;;;;;;5035416;28;20430;-69
2024/02/21 03:27:27;;;;;;;17.40;3.33;;;6.10;4.20;;;;;;5034961;28;20537;-69
2024/02/21 03:29:52;;;;;;;9.07;2.80;;;6.10;3.50;;;;;;5034818;28;20179;-69
2024/02/21 03:32:18;;;;;;;6.17;2.80;;;6.10;3.50;;;;;;5035107;28;20186;-69
2024/02/21 03:34:43;;;;;;;4.43;2.43;;;6.10;3.50;;;;;;5034404;28;20220;-69
2024/02/21 03:37:09;;;;;;;8.20;2.87;;;6.10;3.50;;;;;;5034843;28;20188;-69
2024/02/21 03:39:34;;;;;;;4.60;2.20;;;6.20;3.50;;;;;;5034107;28;20184;-69
2024/02/21 03:42:04;;;;;;;7.60;2.70;;;6.10;2.70;;;;;;5033932;28;20617;-69
2024/02/21 03:44:32;;;;;;;4.90;2.07;;;6.10;2.50;;;;;;5033623;28;20175;-70
2024/02/21 03:46:59;;;;;;;7.70;2.70;;;6.10;2.40;;;;;;5033726;28;20406;-71
2024/02/21 03:49:25;;;;;;;4.83;2.90;;;6.10;2.30;;;;;;5033567;28;20498;-70
2024/02/21 03:51:51;;;;;;;8.43;2.97;;;6.10;2.70;;;;;;5032647;28;20905;-69
2024/02/21 03:54:16;;;;;;;6.80;2.60;;;6.00;2.60;;;;;;5033705;28;20167;-69
2024/02/21 03:56:42;;;;;;;4.83;2.30;;;6.00;2.60;;;;;;5033342;28;20281;-69
2024/02/21 03:59:08;;;;;;;6.80;2.97;;;6.00;2.70;;;;;;5033511;28;20179;-68
2024/02/21 04:01:34;;;;;;;6.87;2.30;;;6.00;2.20;;;;;;5033875;28;20182;-68
2024/02/21 04:04:00;;;;;;;3.70;2.20;;;6.00;1.80;;;;;;5033883;28;20175;-68
2024/02/21 04:06:25;;;;;;;6.40;2.27;;;6.10;1.70;;;;;;5034205;28;20805;-68
2024/02/21 04:08:51;;;;;;;18.13;3.00;;;6.10;1.40;;;;;;5035148;28;20211;-69
2024/02/21 04:11:18;;;;;;;6.13;2.50;;;6.10;1.20;;;;;;5035397;28;20183;-69
2024/02/21 04:13:44;;;;;;;3.90;2.50;;;6.10;1.40;;;;;;5032902;28;20179;-70
2024/02/21 04:16:10;;;;;;;7.63;2.40;;;6.10;1.30;;;;;;5034341;28;20952;-70
2024/02/21 04:18:35;;;;;;;7.00;3.00;;;6.10;1.30;;;;;;5034892;28;20495;-68
2024/02/21 04:21:01;;;;;;;6.03;2.63;;;6.00;1.80;;;;;;5034777;28;20545;-68
2024/02/21 04:23:26;;;;;;;3.80;2.70;;;5.90;2.40;;;;;;5034258;28;20526;-68
2024/02/21 04:25:52;;;;;;;6.50;3.30;;;5.90;3.00;;;;;;5032671;28;20293;-68
2024/02/21 04:28:18;;;;;;;6.70;3.47;;;6.00;3.80;;;;;;5034409;28;20290;-68
2024/02/21 04:30:43;;;;;;;5.70;3.80;;;5.80;5.70;;;;;;5034082;28;20566;-70
2024/02/21 04:33:09;;;;;;;4.80;3.80;;;5.80;6.20;;;;;;5033650;28;20190;-68
2024/02/21 04:35:36;;;;;;;7.83;3.73;;;5.70;6.00;;;;;;5033404;28;20667;-68
2024/02/21 04:38:02;;;;;;;7.57;4.27;;;5.70;6.40;;;;;;5033204;28;20593;-68
2024/02/21 04:40:27;;;;;;;6.47;3.73;;;5.60;6.50;;;;;;5032926;28;20465;-68
2024/02/21 04:42:53;;;;;;;6.00;4.43;;;5.50;7.10;;;;;;5033435;28;20750;-68
2024/02/21 04:45:19;;;;;;;4.10;3.70;;;5.50;7.50;;;;;;5033823;28;20246;-68
2024/02/21 04:47:44;;;;;;;7.97;4.40;;;5.40;7.50;;;;;;5034323;28;20464;-69
2024/02/21 04:50:10;;;;;;;5.90;4.00;;;5.40;7.50;;;;;;5034974;28;20180;-69
2024/02/21 04:52:35;;;;;;;8.20;4.93;;;5.30;8.60;;;;;;5034892;28;20183;-67
2024/02/21 04:55:01;;;;;;;11.90;5.10;;;5.30;8.30;;;;;;5035596;28;20210;-71
2024/02/21 04:57:27;;;;;;;5.63;3.70;;;5.30;9.00;;;;;;5037770;28;20203;-71
2024/02/21 04:59:52;;;;;;;6.93;5.07;;;5.30;9.40;;;;;;5037139;28;20195;-69
2024/02/21 05:02:19;;;;;;;6.60;3.73;;;5.30;9.80;;;;;;5035307;28;20205;-69
2024/02/21 05:04:45;;;;;;;7.30;3.60;;;5.20;10.10;;;;;;5035252;28;20191;-69
2024/02/21 05:07:11;;;;;;;8.40;3.87;;;5.20;9.90;;;;;;5033377;28;20433;-69
2024/02/21 05:09:37;;;;;;;9.23;3.83;;;5.10;10.10;;;;;;5032809;28;20709;-69
2024/02/21 05:12:03;;;;;;;6.97;4.80;;;5.00;10.80;;;;;;5033622;28;20409;-69
2024/02/21 05:14:29;;;;;;;7.60;5.30;;;4.80;11.50;;;;;;5033426;28;20559;-69
2024/02/21 05:16:54;;;;;;;7.93;4.43;;;4.80;13.30;;;;;;5032045;28;20414;-69
2024/02/21 05:19:20;;;;;;;5.53;2.73;;;4.80;12.90;;;;;;5035328;28;20186;-68
2024/02/21 05:21:46;;;;;;;12.80;5.80;;;4.70;14.20;;;;;;5034461;28;20231;-68
2024/02/21 05:24:11;;;;;;;9.60;4.57;;;4.50;15.60;;;;;;5034039;28;20551;-69
2024/02/21 05:26:37;;;;;;;5.10;3.30;;;4.40;15.80;;;;;;5034095;28;20206;-69
2024/02/21 05:29:03;;;;;;;8.03;4.77;;;4.30;16.10;;;;;;5035679;28;20223;-70
2024/02/21 05:31:51;;;;;;;5.03;4.13;;;4.20;17.90;;;;;;5034513;28;20277;-69
2024/02/21 05:34:21;;;;;;;13.00;4.60;;;4.10;19.90;;;;;;5034130;28;20436;-69
2024/02/21 05:36:47;;;;;;;10.60;3.78;;;4.00;20.00;;;;;;5033931;28;20703;-69
2024/02/21 05:39:14;;;;;;;12.70;4.70;;;3.90;20.60;;;;;;5033394;28;20244;-68
2024/02/21 05:41:39;;;;;;;7.83;4.30;;;3.90;22.30;;;;;;5033894;28;20867;-68
2024/02/21 05:44:05;;;;;;;9.97;4.30;;;3.90;21.90;;;;;;5033198;28;20462;-68
2024/02/21 05:46:31;;;;;;;7.63;4.07;;;3.80;22.50;;;;;;5031278;28;20615;-67
2024/02/21 05:48:56;;;;;;;11.13;4.70;;;3.80;22.40;;;;;;5031262;28;20575;-68
2024/02/21 05:51:22;;;;;;;6.33;4.43;;;3.80;21.50;;;;;;5031456;28;20179;-68
2024/02/21 05:53:47;;;;;;;7.07;4.17;;;3.80;22.90;;;;;;5031450;28;20264;-68
2024/02/21 05:56:14;;;;;;;6.83;4.07;;;3.70;23.40;;;;;;5031207;28;20207;-68
2024/02/21 05:58:40;;;;;;;5.57;4.10;;;3.70;23.40;;;;;;5031430;28;20183;-67
2024/02/21 06:01:06;;;;;;;9.97;4.43;;;3.70;23.80;;;;;;5030929;28;20412;-68
2024/02/21 06:03:33;;;;;;;4.63;4.00;;;3.60;23.40;;;;;;5031554;28;20926;-68
2024/02/21 06:05:59;;;;;;;10.30;5.13;;;3.60;23.40;;;;;;5031267;28;20527;-69
2024/02/21 06:08:25;;;;;;;6.85;3.90;;;3.60;23.80;;;;;;5031076;28;20483;-67
2024/02/21 06:10:54;;;;;;;5.93;3.57;;;3.50;23.40;;;;;;5031479;28;20238;-70
2024/02/21 06:13:26;;;;;;;8.82;4.85;;;3.50;23.80;;;;;;5034123;28;20196;-68
2024/02/21 06:15:52;;;;;;;8.48;4.10;;;3.50;23.30;;;;;;5034028;28;20330;-67
2024/02/21 06:18:18;;;;;;;8.53;5.37;;;3.50;24.40;;;;;;5035648;28;20653;-69
2024/02/21 06:20:44;;;;;;;6.53;4.70;;;3.50;24.40;;;;;;5036190;28;20273;-68
2024/02/21 06:23:09;;;;;;;12.18;4.13;;;3.50;24.60;;;;;;5036364;28;20178;-69
2024/02/21 06:25:35;;;;;;;7.47;4.03;;;3.60;25.00;;;;;;5035928;28;20205;-68
2024/02/21 06:28:01;;;;;;;4.80;4.13;;;3.60;24.80;;;;;;5035539;28;20290;-70
2024/02/21 06:30:26;;;;;;;5.63;4.30;;;3.70;24.30;;;;;;5033241;28;20188;-67
2024/02/21 06:32:55;;;;;;;7.80;4.13;;;3.60;24.40;;;;;;5035230;28;20178;-69
2024/02/21 06:35:21;;;;;;;7.88;3.80;;;3.60;24.50;;;;;;5035569;28;20184;-68
2024/02/21 06:37:50;;;;;;;10.23;4.60;;;3.70;24.50;;;;;;5035346;28;20609;-68
2024/02/21 06:40:16;;;;;;;6.68;4.45;;;3.80;23.80;;;;;;5034906;28;20231;-68
2024/02/21 06:42:42;;;;;;;7.18;4.47;;;3.80;24.10;;;;;;5035248;28;20543;-69
2024/02/21 06:45:08;;;;;;;8.53;4.67;;;3.90;23.60;;;;;;5035158;28;20285;-68
2024/02/21 06:47:33;;;;;;;6.97;4.83;;;3.90;23.60;;;;;;5034677;28;20202;-68
2024/02/21 06:49:59;;;;;;;7.57;3.90;;;3.90;23.00;;;;;;5034476;28;20507;-69
2024/02/21 06:52:25;;;;;;;4.87;3.60;;;4.00;22.60;;;;;;5034506;28;20178;-68
2024/02/21 06:54:50;;;;;;;8.37;4.80;;;4.00;22.90;;;;;;5034225;28;20202;-68
2024/02/21 06:57:16;;;;;;;11.60;4.67;;;4.10;22.60;;;;;;5033180;28;20426;-68
2024/02/21 06:59:42;;;;;;;9.47;5.80;;;4.20;21.80;;;;;;5033955;28;20634;-69
2024/02/21 07:02:08;;;;;;;8.67;4.30;;;4.30;21.10;;;;;;5034064;28;20591;-70
2024/02/21 07:04:34;;;;;;;10.10;4.87;;;4.40;19.80;;;;;;5032486;28;20416;-68
2024/02/21 07:06:59;;;;;;;10.20;5.60;;;4.40;19.80;;;;;;5034058;28;20507;-69
2024/02/21 07:09:25;;;;;;;12.13;5.43;;;4.50;19.80;;;;;;5033726;28;20420;-67
2024/02/21 07:11:50;;;;;;;9.20;4.77;;;4.60;19.80;;;;;;5034039;28;20223;-69
2024/02/21 07:14:16;;;;;;;12.77;4.47;;;4.70;19.20;;;;;;5029142;28;20183;-69
2024/02/21 07:16:41;;;;;;;7.27;4.70;;;4.70;18.80;;;;;;5029100;28;20191;-68
2024/02/21 07:19:07;;;;;;;8.97;4.60;;;4.80;18.10;;;;;;5029398;28;20528;-69
2024/02/21 07:21:33;;;;;;;9.63;3.97;;;4.90;16.80;;;;;;5029425;28;20191;-70
2024/02/21 07:23:58;;;;;;;6.30;4.63;;;5.00;16.70;;;;;;5030321;28;20210;-69
2024/02/21 07:26:24;;;;;;;8.00;4.10;;;5.00;15.40;;;;;;5029643;28;20203;-69
2024/02/21 07:28:49;;;;;;;9.40;4.00;;;5.10;14.00;;;;;;5029551;28;20264;-69
2024/02/21 07:31:15;;;;;;;4.80;4.03;;;5.20;13.80;;;;;;5030476;28;20667;-68
2024/02/21 07:33:41;;;;;;;9.83;4.17;;;5.20;13.40;;;;;;5025925;28;20205;-69
2024/02/21 07:36:08;;;;;;;9.50;4.70;;;5.30;13.80;;;;;;5024841;28;20587;-69
2024/02/21 07:38:34;;;;;;;4.97;4.23;;;5.30;13.60;;;;;;5032055;28;20318;-69
2024/02/21 07:40:59;;;;;;;8.10;4.80;;;5.40;13.10;;;;;;5032333;28;20559;-69
2024/02/21 07:43:26;;;;;;;10.40;5.63;;;5.40;12.90;;;;;;5032718;28;20430;-68
2024/02/21 07:45:53;;;;;;;11.30;4.77;;;5.60;13.20;;;;;;5032831;28;21300;-69
2024/02/21 07:48:19;;;;;;;8.90;5.60;;;5.80;12.10;;;;;;5031701;28;20450;-69
2024/02/21 07:50:44;;;;;;;7.17;4.80;;;6.00;12.30;;;;;;5032355;28;20425;-68
2024/02/21 07:53:10;;;;;;;7.30;4.50;;;6.20;10.30;;;;;;5027285;28;20427;-69
2024/02/21 07:55:35;;;;;;;9.20;4.80;;;6.40;8.10;;;;;;5027915;28;20291;-69
2024/02/21 07:58:01;;;;;;;9.37;5.00;;;6.50;5.00;;;;;;5032993;28;20190;-69
2024/02/21 08:00:27;;;;;;;14.40;4.70;;;6.50;4.40;;;;;;5032141;28;20710;-68
2024/02/21 08:02:53;;;;;;;8.10;4.77;;;6.80;4.80;;;;;;5032118;28;20201;-69
2024/02/21 08:05:18;;;;;;;6.13;4.70;;;7.00;4.10;;;;;;5032040;28;20257;-70
2024/02/21 08:07:44;;;;;;;17.03;4.97;;;7.10;1.60;;;;;;5032271;28;20512;-68
2024/02/21 08:10:09;;;;;;;6.17;4.00;;;7.30;1.20;;;;;;5032393;28;20181;-69
2024/02/21 08:12:35;;;;;;;9.40;4.67;;;7.40;1.00;;;;;;5054414;22;20318;-69
2024/02/21 08:15:03;;;;;;;7.90;4.67;;;7.60;1.00;;;;;;5028231;28;20187;-69
2024/02/21 08:17:29;;;;;;;9.47;4.93;;;7.60;1.00;;;;;;5027228;28;20431;-68
2024/02/21 08:19:54;;;;;;;9.67;5.10;;;7.60;1.00;;;;;;5027876;28;20444;-68
2024/02/21 08:22:20;;;;;;;11.80;5.13;;;7.70;1.00;;;;;;5028543;28;20543;-69
2024/02/21 08:24:46;;;;;;;7.77;4.10;;;7.80;1.00;;;;;;5028741;28;20653;-69
2024/02/21 08:27:11;;;;;;;8.90;4.83;;;8.10;1.00;;;;;;5029171;28;20189;-69
2024/02/21 08:29:37;;;;;;;8.40;4.77;;;8.20;1.00;;;;;;5029296;28;20252;-70
2024/02/21 08:32:02;;;;;;;7.90;5.30;;;8.20;1.00;;;;;;5031912;28;20268;-69
2024/02/21 08:34:30;;;;;;;6.23;4.13;;;8.30;1.00;;;;;;5031758;28;20175;-69
2024/02/21 08:36:55;;;;;;;8.50;4.93;;;8.40;1.00;;;;;;5032425;28;20537;-68
2024/02/21 08:39:21;;;;;;;8.23;4.60;;;8.60;1.00;;;;;;5032363;28;20415;-69
2024/02/21 08:41:51;;;;;;;6.80;4.63;;;8.80;1.00;;;;;;5032351;28;20210;-70
2024/02/21 08:44:16;;;;;;;11.30;4.57;;;9.00;1.00;;;;;;5031200;28;20189;-69
2024/02/21 08:46:42;;;;;;;7.83;4.80;;;9.10;1.00;;;;;;5032248;28;20421;-68
2024/02/21 08:49:09;;;;;;;9.43;5.17;;;9.30;1.00;;;;;;5031684;28;20207;-68
2024/02/21 08:51:35;;;;;;;4.67;3.57;;;9.30;1.00;;;;;;5030582;28;20442;-68
2024/02/21 08:54:02;;;;;;;9.60;5.50;;;9.60;1.00;;;;;;5031912;28;20774;-69
2024/02/21 08:56:30;;;;;;;7.83;4.90;;;9.80;1.00;;;;;;5032251;28;20233;-68
2024/02/21 08:58:57;;;;;;;13.00;4.90;;;10.00;1.00;;;;;;5030983;28;20413;-69
2024/02/21 09:01:23;;;;;;;6.53;4.00;;;9.90;1.00;;;;;;5031532;28;20438;-68
2024/02/21 09:03:52;;;;;;;7.90;3.40;;;9.90;1.00;;;;;;5031418;28;20832;-68
2024/02/21 09:06:18;;;;;;;9.97;3.90;;;9.80;1.00;;;;;;5030173;28;20221;-68
2024/02/21 09:08:43;;;;;;;6.60;3.40;;;9.70;1.00;;;;;;5031794;28;20545;-69
2024/02/21 09:11:09;;;;;;;5.80;4.10;;;9.60;1.00;;;;;;5031409;28;20285;-68
2024/02/21 09:13:34;;;;;;;10.07;4.67;;;9.90;1.00;;;;;;5031656;28;20641;-69
2024/02/21 09:16:00;;;;;;;6.53;3.20;;;9.80;1.00;;;;;;5031391;28;20206;-70
2024/02/21 09:18:26;;;;;;;5.20;3.60;;;10.00;1.00;;;;;;5031218;28;20187;-69
2024/02/21 09:20:51;;;;;;;6.13;3.80;;;10.20;1.00;;;;;;5031037;28;20199;-67
2024/02/21 09:23:19;;;;;;;7.80;3.97;;;10.50;1.00;;;;;;5031614;28;20591;-69
2024/02/21 09:25:45;;;;;;;9.70;4.17;;;10.50;1.00;;;;;;5031405;28;20437;-68
2024/02/21 09:28:12;;;;;;;7.70;4.30;;;10.40;1.00;;;;;;5031279;28;20516;-69
2024/02/21 09:30:38;;;;;;;5.50;3.77;;;10.20;1.00;;;;;;5031027;28;20413;-69
2024/02/21 09:33:04;;;;;;;10.40;4.23;;;10.10;1.00;;;;;;5031635;28;20904;-70
2024/02/21 09:35:30;;;;;;;7.50;4.23;;;9.90;1.00;;;;;;5031573;28;20203;-69
2024/02/21 09:37:56;;;;;;;7.30;4.00;;;10.00;1.00;;;;;;5031260;28;20432;-69
2024/02/21 09:40:22;;;;;;;6.80;4.00;;;10.00;1.00;;;;;;5030859;28;20418;-69
2024/02/21 09:42:48;;;;;;;6.53;3.77;;;10.00;1.00;;;;;;5031483;28;20273;-70
2024/02/21 09:45:24;;;;;;;4.50;3.97;;;10.10;1.00;;;;;;5031420;28;20193;-70
2024/02/21 09:48:27;;;;;;;7.13;4.23;;;10.20;1.00;;;;;;5031221;28;20475;-70
2024/02/21 09:50:55;;;;;;;7.40;3.40;;;10.60;1.00;;;;;;5030747;28;20483;-69
2024/02/21 09:53:22;;;;;;;7.17;3.20;;;10.70;1.00;;;;;;5029732;28;20509;-69
2024/02/21 09:55:48;;;;;;;8.13;4.07;;;10.60;1.00;;;;;;5029712;28;20833;-69
2024/02/21 09:58:15;;;;;;;7.63;3.27;;;10.60;1.00;;;;;;5031060;28;20456;-69
2024/02/21 10:00:40;;;;;;;5.80;3.50;;;10.70;1.00;;;;;;5029454;28;20426;-70
2024/02/21 10:03:08;;;;;;;3.87;3.03;;;10.80;1.00;;;;;;5030912;28;20830;-69
2024/02/21 10:05:37;;;;;;;5.47;3.10;;;10.90;1.00;;;;;;5031045;28;20180;-69
2024/02/21 10:08:04;;;;;;;5.30;3.40;;;11.20;1.00;;;;;;5030851;28;20489;-69
2024/02/21 10:10:40;;;;;;;6.40;4.03;;;11.20;1.00;;;;;;5030752;28;20505;-69
2024/02/21 10:13:06;;;;;;;9.87;3.30;;;11.10;1.00;;;;;;5030800;28;20426;-69
2024/02/21 10:15:31;;;;;;;5.03;4.10;;;11.20;1.00;;;;;;5031087;28;20524;-69
2024/02/21 10:18:01;;;;;;;6.73;4.10;;;11.20;1.00;;;;;;5031180;28;20913;-69
2024/02/21 10:20:27;;;;;;;8.10;3.90;;;11.30;1.00;;;;;;5030995;28;20590;-70
2024/02/21 10:23:07;;;;;;;11.90;3.23;;;11.30;1.00;;;;;;5031364;28;20439;-70
2024/02/21 10:25:33;;;;;;;4.93;3.27;;;11.20;1.00;;;;;;5031265;28;20905;-70
2024/02/21 10:27:59;;;;;;;6.60;4.27;;;11.40;1.00;;;;;;5030908;28;20553;-70
2024/02/21 10:30:24;;;;;;;4.93;3.67;;;11.50;1.00;;;;;;5030712;28;20477;-70
2024/02/21 10:32:51;;;;;;;7.13;4.63;;;11.60;1.00;;;;;;5029647;28;20195;-69
2024/02/21 10:35:26;;;;;;;3.70;2.80;;;11.80;1.00;;;;;;5030884;28;20177;-70
2024/02/21 10:37:55;;;;;;;6.67;3.83;;;12.10;1.00;;;;;;5030948;28;20419;-71
2024/02/21 10:40:24;;;;;;;5.43;3.67;;;12.20;1.00;;;;;;5031019;28;20429;-70
2024/02/21 10:42:59;;;;;;;9.50;3.70;;;12.20;1.00;;;;;;5030705;28;20928;-70
2024/02/21 10:45:34;;;;;;;5.53;3.87;;;12.40;1.00;;;;;;5029595;28;20929;-69
2024/02/21 10:48:10;;;;;;;6.67;3.77;;;12.70;1.00;;;;;;5031068;28;20465;-68
2024/02/21 10:50:57;;;;;;;3.50;3.17;;;13.00;1.00;;;;;;5031031;28;20409;-69
2024/02/21 10:53:56;;;;;;;10.43;4.67;;;13.10;1.00;;;;;;5031364;28;20417;-69
2024/02/21 10:56:25;;;;;;;5.47;3.30;;;13.20;1.00;;;;;;5030001;28;20414;-70
2024/02/21 10:58:52;;;;;;;7.07;3.47;;;13.40;1.00;;;;;;5033443;28;20936;-71
2024/02/21 11:01:19;;;;;;;6.37;3.80;;;13.60;1.00;;;;;;5034672;28;20485;-69
2024/02/21 11:03:46;;;;;;;5.47;3.40;;;13.40;1.00;;;;;;5035430;28;20445;-70
2024/02/21 11:06:13;;;;;;;4.50;3.50;;;13.60;1.00;;;;;;5034583;28;20456;-68
2024/02/21 11:08:39;;;;;;;5.87;2.90;;;13.90;1.00;;;;;;5033436;28;20465;-73
2024/02/21 11:11:05;;;;;;;4.10;3.07;;;13.90;1.00;;;;;;5034100;28;20449;-70
2024/02/21 11:13:40;;;;;;;7.40;3.60;;;14.00;1.00;;;;;;5033956;28;20540;-70
2024/02/21 11:16:10;;;;;;;6.67;3.60;;;14.00;1.00;;;;;;5034039;28;20410;-69
2024/02/21 11:18:39;;;;;;;9.30;3.20;;;14.10;1.00;;;;;;5034229;28;20509;-69
2024/02/21 11:21:05;;;;;;;4.40;3.37;;;14.10;1.00;;;;;;5033845;28;21145;-69
2024/02/21 11:23:31;;;;;;;8.80;4.20;;;14.30;1.00;;;;;;5034382;28;20406;-68
2024/02/21 11:26:17;;;;;;;9.60;3.87;;;14.50;1.00;;;;;;5033005;28;20513;-68
2024/02/21 11:28:44;;;;;;;6.33;4.63;;;14.80;1.00;;;;;;5034085;28;20492;-68
2024/02/21 11:31:16;;;;;;;3.93;3.00;;;15.10;1.00;;;;;;5034051;28;20487;-69
2024/02/21 11:33:43;;;;;;;6.23;3.40;;;14.90;1.00;;;;;;5034072;28;20417;-68
2024/02/21 11:36:09;;;;;;;6.43;3.10;;;14.70;1.00;;;;;;5035187;28;20425;-69
2024/02/21 11:38:35;;;;;;;4.43;3.47;;;15.00;1.00;;;;;;5035377;28;20416;-68
2024/02/21 11:41:01;;;;;;;3.83;3.43;;;14.90;1.00;;;;;;5033946;28;20493;-68
2024/02/21 11:43:27;;;;;;;4.73;3.80;;;14.80;1.00;;;;;;5034313;28;20191;-68
2024/02/21 11:46:03;;;;;;;3.67;3.37;;;15.00;1.00;;;;;;5033796;28;20179;-69
2024/02/21 11:48:29;;;;;;;7.00;3.80;;;15.20;1.00;;;;;;5034107;28;20206;-69
2024/02/21 11:50:56;;;;;;;4.77;3.67;;;15.20;1.00;;;;;;5033487;28;20437;-69
2024/02/21 11:53:22;;;;;;;5.97;3.33;;;15.10;1.00;;;;;;5032610;28;20414;-69
2024/02/21 11:55:47;;;;;;;5.37;3.27;;;15.10;1.00;;;;;;5033686;28;20774;-69
2024/02/21 11:58:13;;;;;;;9.20;3.33;;;15.30;1.00;;;;;;5033646;28;20426;-69
2024/02/21 12:00:39;;;;;;;3.47;3.17;;;15.30;1.00;;;;;;5033133;28;20183;-69
2024/02/21 12:03:05;;;;;;;4.87;3.27;;;15.50;1.00;;;;;;5033982;28;20210;-68
2024/02/21 12:05:31;;;;;;;4.83;3.60;;;15.70;1.00;;;;;;5033802;28;20417;-68
2024/02/21 12:08:00;;;;;;;7.17;3.87;;;15.70;1.00;;;;;;5033681;28;20218;-69
2024/02/21 12:10:27;;;;;;;4.53;2.83;;;15.80;1.00;;;;;;5033337;28;21052;-69
2024/02/21 12:12:54;;;;;;;3.57;3.27;;;15.90;1.00;;;;;;5033018;28;20454;-69
2024/02/21 12:15:21;;;;;;;4.97;3.80;;;16.00;1.00;;;;;;5033464;28;20929;-69
2024/02/21 12:17:46;;;;;;;4.77;4.33;;;15.90;1.00;;;;;;5033404;28;20452;-69
2024/02/21 12:20:12;;;;;;;7.77;4.00;;;15.90;1.00;;;;;;5032893;28;20410;-69
2024/02/21 12:22:39;;;;;;;4.40;3.60;;;16.00;1.00;;;;;;5033158;28;20191;-69
2024/02/21 12:25:15;;;;;;;5.37;3.43;;;15.80;1.00;;;;;;5033316;28;20635;-69
2024/02/21 12:27:41;;;;;;;5.20;3.00;;;15.90;1.00;;;;;;5033450;28;20552;-68
2024/02/21 12:30:09;;;;;;;4.87;3.70;;;15.60;1.00;;;;;;5033420;28;20440;-68
2024/02/21 12:32:35;;;;;;;4.80;4.00;;;15.60;1.00;;;;;;5033234;28;20301;-69
2024/02/21 12:35:02;;;;;;;3.40;3.10;;;15.40;1.00;;;;;;5032931;28;20421;-69
2024/02/21 12:37:27;;;;;;;3.10;2.80;;;15.30;1.00;;;;;;5032901;28;20809;-69
2024/02/21 12:39:53;;;;;;;7.90;3.60;;;15.60;1.00;;;;;;5032870;28;20471;-68
2024/02/21 12:42:19;;;;;;;5.10;3.03;;;15.30;1.00;;;;;;5033163;28;20628;-68
2024/02/21 12:44:45;;;;;;;3.67;2.70;;;15.40;1.00;;;;;;5033395;28;20176;-68
2024/02/21 12:47:11;;;;;;;6.30;2.50;;;15.50;1.00;;;;;;5032962;28;20183;-68
2024/02/21 12:49:37;;;;;;;6.13;3.00;;;15.60;1.00;;;;;;5032894;28;20817;-69
2024/02/21 12:52:03;;;;;;;3.73;3.23;;;15.90;1.00;;;;;;5031644;28;20469;-69
2024/02/21 12:54:30;;;;;;;2.93;2.60;;;16.20;1.00;;;;;;5032369;28;20186;-68
2024/02/21 12:56:55;;;;;;;5.07;3.57;;;15.90;1.00;;;;;;5032478;28;21017;-69